sensor_id;sensor_type;location;lat;lon;timestamp;P1;durP1;ratioP1;P2;durP2;ratioP2
11034;SDS011;5571;48.110;-1.706;2023-03-01T00:01:11;22.17;;;17.93;;
11034;SDS011;5571;48.110;-1.706;2023-03-01T00:03:42;17.87;;;15.97;;
11034;SDS011;5571;48.110;-1.706;2023-03-01T00:06:08;21.17;;;17.07;;
11034;SDS011;5571;48.110;-1.706;2023-03-01T00:08:34;20.30;;;16.53;;
11034;SDS011;5571;48.110;-1.706;2023-03-01T00:11:01;20.50;;;17.00;;
11034;SDS011;5571;48.110;-1.706;2023-03-01T00:13:27;18.47;;;16.17;;
11034;SDS011;5571;48.110;-1.706;2023-03-01T00:15:53;20.67;;;16.90;;
11034;SDS011;5571;48.110;-1.706;2023-03-01T00:18:18;17.50;;;15.63;;
11034;SDS011;5571;48.110;-1.706;2023-03-01T00:20:50;22.47;;;17.47;;
11034;SDS011;5571;48.110;-1.706;2023-03-01T00:23:17;21.97;;;17.13;;
11034;SDS011;5571;48.110;-1.706;2023-03-01T00:25:43;20.77;;;16.97;;
11034;SDS011;5571;48.110;-1.706;2023-03-01T00:28:09;21.77;;;16.93;;
11034;SDS011;5571;48.110;-1.706;2023-03-01T00:30:34;19.33;;;16.80;;
11034;SDS011;5571;48.110;-1.706;2023-03-01T00:33:00;20.43;;;17.20;;
11034;SDS011;5571;48.110;-1.706;2023-03-01T00:35:25;20.20;;;16.90;;
11034;SDS011;5571;48.110;-1.706;2023-03-01T00:37:51;21.53;;;17.10;;
11034;SDS011;5571;48.110;-1.706;2023-03-01T00:40:22;21.87;;;16.73;;
11034;SDS011;5571;48.110;-1.706;2023-03-01T00:42:52;19.63;;;16.40;;
11034;SDS011;5571;48.110;-1.706;2023-03-01T00:45:18;19.83;;;16.73;;
11034;SDS011;5571;48.110;-1.706;2023-03-01T00:47:43;21.40;;;17.37;;
11034;SDS011;5571;48.110;-1.706;2023-03-01T00:50:10;19.80;;;17.33;;
11034;SDS011;5571;48.110;-1.706;2023-03-01T00:52:36;21.17;;;17.27;;
11034;SDS011;5571;48.110;-1.706;2023-03-01T00:55:02;20.73;;;18.10;;
11034;SDS011;5571;48.110;-1.706;2023-03-01T00:57:28;19.77;;;17.03;;
11034;SDS011;5571;48.110;-1.706;2023-03-01T00:59:53;20.50;;;17.60;;
11034;SDS011;5571;48.110;-1.706;2023-03-01T01:02:19;22.40;;;17.53;;
11034;SDS011;5571;48.110;-1.706;2023-03-01T01:04:46;22.77;;;17.63;;
11034;SDS011;5571;48.110;-1.706;2023-03-01T01:07:12;21.93;;;17.67;;
11034;SDS011;5571;48.110;-1.706;2023-03-01T01:09:38;22.73;;;16.97;;
11034;SDS011;5571;48.110;-1.706;2023-03-01T01:12:04;24.37;;;18.57;;
11034;SDS011;5571;48.110;-1.706;2023-03-01T01:14:30;23.73;;;18.50;;
11034;SDS011;5571;48.110;-1.706;2023-03-01T01:16:56;21.57;;;17.53;;
11034;SDS011;5571;48.110;-1.706;2023-03-01T01:19:22;22.67;;;18.57;;
11034;SDS011;5571;48.110;-1.706;2023-03-01T01:21:48;20.60;;;18.33;;
11034;SDS011;5571;48.110;-1.706;2023-03-01T01:24:14;20.60;;;17.97;;
11034;SDS011;5571;48.110;-1.706;2023-03-01T01:26:40;22.90;;;17.77;;
11034;SDS011;5571;48.110;-1.706;2023-03-01T01:29:07;21.43;;;18.17;;
11034;SDS011;5571;48.110;-1.706;2023-03-01T01:31:34;22.80;;;18.47;;
11034;SDS011;5571;48.110;-1.706;2023-03-01T01:34:02;22.37;;;18.13;;
11034;SDS011;5571;48.110;-1.706;2023-03-01T01:36:29;21.97;;;18.07;;
11034;SDS011;5571;48.110;-1.706;2023-03-01T01:38:56;21.77;;;17.83;;
11034;SDS011;5571;48.110;-1.706;2023-03-01T01:41:22;21.53;;;17.77;;
11034;SDS011;5571;48.110;-1.706;2023-03-01T01:44:10;23.63;;;18.33;;
11034;SDS011;5571;48.110;-1.706;2023-03-01T01:46:58;21.97;;;18.57;;
11034;SDS011;5571;48.110;-1.706;2023-03-01T01:49:35;24.00;;;18.70;;
11034;SDS011;5571;48.110;-1.706;2023-03-01T01:54:44;24.37;;;18.10;;
11034;SDS011;5571;48.110;-1.706;2023-03-01T01:57:19;22.17;;;18.10;;
11034;SDS011;5571;48.110;-1.706;2023-03-01T01:59:51;22.50;;;18.70;;
11034;SDS011;5571;48.110;-1.706;2023-03-01T02:02:19;21.10;;;18.73;;
11034;SDS011;5571;48.110;-1.706;2023-03-01T02:04:46;22.97;;;18.53;;
11034;SDS011;5571;48.110;-1.706;2023-03-01T02:07:19;22.67;;;19.10;;
11034;SDS011;5571;48.110;-1.706;2023-03-01T02:09:49;23.73;;;18.63;;
11034;SDS011;5571;48.110;-1.706;2023-03-01T02:12:18;20.47;;;17.87;;
11034;SDS011;5571;48.110;-1.706;2023-03-01T02:14:46;22.23;;;18.47;;
11034;SDS011;5571;48.110;-1.706;2023-03-01T02:17:12;21.43;;;17.67;;
11034;SDS011;5571;48.110;-1.706;2023-03-01T02:19:49;20.03;;;16.60;;
11034;SDS011;5571;48.110;-1.706;2023-03-01T02:22:33;20.37;;;17.10;;
11034;SDS011;5571;48.110;-1.706;2023-03-01T02:27:27;21.10;;;17.37;;
11034;SDS011;5571;48.110;-1.706;2023-03-01T02:30:20;19.47;;;16.67;;
11034;SDS011;5571;48.110;-1.706;2023-03-01T02:32:47;18.93;;;16.90;;
11034;SDS011;5571;48.110;-1.706;2023-03-01T02:35:14;19.77;;;17.20;;
11034;SDS011;5571;48.110;-1.706;2023-03-01T02:37:42;19.53;;;16.77;;
11034;SDS011;5571;48.110;-1.706;2023-03-01T02:40:10;19.53;;;16.07;;
11034;SDS011;5571;48.110;-1.706;2023-03-01T02:42:42;21.53;;;17.13;;
11034;SDS011;5571;48.110;-1.706;2023-03-01T02:45:19;18.73;;;16.70;;
11034;SDS011;5571;48.110;-1.706;2023-03-01T02:47:45;21.03;;;16.60;;
11034;SDS011;5571;48.110;-1.706;2023-03-01T02:50:13;20.43;;;17.20;;
11034;SDS011;5571;48.110;-1.706;2023-03-01T02:53:02;21.27;;;17.37;;
11034;SDS011;5571;48.110;-1.706;2023-03-01T02:55:31;22.03;;;16.57;;
11034;SDS011;5571;48.110;-1.706;2023-03-01T02:57:57;18.60;;;16.57;;
11034;SDS011;5571;48.110;-1.706;2023-03-01T03:00:28;19.53;;;16.33;;
11034;SDS011;5571;48.110;-1.706;2023-03-01T03:03:04;18.60;;;16.07;;
11034;SDS011;5571;48.110;-1.706;2023-03-01T03:05:31;21.50;;;17.60;;
11034;SDS011;5571;48.110;-1.706;2023-03-01T03:07:58;19.13;;;15.80;;
11034;SDS011;5571;48.110;-1.706;2023-03-01T03:10:35;18.27;;;16.17;;
11034;SDS011;5571;48.110;-1.706;2023-03-01T03:13:08;23.53;;;16.73;;
11034;SDS011;5571;48.110;-1.706;2023-03-01T03:15:36;20.27;;;17.23;;
11034;SDS011;5571;48.110;-1.706;2023-03-01T03:18:04;20.97;;;16.93;;
11034;SDS011;5571;48.110;-1.706;2023-03-01T03:20:31;17.90;;;16.00;;
11034;SDS011;5571;48.110;-1.706;2023-03-01T03:22:57;19.27;;;15.83;;
11034;SDS011;5571;48.110;-1.706;2023-03-01T03:25:24;18.50;;;16.10;;
11034;SDS011;5571;48.110;-1.706;2023-03-01T03:27:51;17.87;;;15.60;;
11034;SDS011;5571;48.110;-1.706;2023-03-01T03:30:28;19.97;;;16.37;;
11034;SDS011;5571;48.110;-1.706;2023-03-01T03:32:56;19.57;;;15.87;;
11034;SDS011;5571;48.110;-1.706;2023-03-01T03:37:56;19.13;;;15.03;;
11034;SDS011;5571;48.110;-1.706;2023-03-01T03:40:27;17.93;;;15.67;;
11034;SDS011;5571;48.110;-1.706;2023-03-01T03:43:01;20.33;;;16.23;;
11034;SDS011;5571;48.110;-1.706;2023-03-01T03:45:31;17.40;;;15.20;;
11034;SDS011;5571;48.110;-1.706;2023-03-01T03:47:58;18.50;;;15.57;;
11034;SDS011;5571;48.110;-1.706;2023-03-01T03:50:25;18.27;;;15.27;;
11034;SDS011;5571;48.110;-1.706;2023-03-01T03:52:50;18.27;;;16.13;;
11034;SDS011;5571;48.110;-1.706;2023-03-01T03:55:16;19.77;;;15.47;;
11034;SDS011;5571;48.110;-1.706;2023-03-01T03:57:44;19.97;;;14.73;;
11034;SDS011;5571;48.110;-1.706;2023-03-01T04:00:17;19.47;;;16.13;;
11034;SDS011;5571;48.110;-1.706;2023-03-01T04:02:45;17.27;;;15.07;;
11034;SDS011;5571;48.110;-1.706;2023-03-01T04:05:12;17.83;;;14.60;;
11034;SDS011;5571;48.110;-1.706;2023-03-01T04:07:40;17.00;;;15.10;;
11034;SDS011;5571;48.110;-1.706;2023-03-01T04:10:08;19.13;;;14.97;;
11034;SDS011;5571;48.110;-1.706;2023-03-01T04:12:35;16.53;;;14.10;;
11034;SDS011;5571;48.110;-1.706;2023-03-01T04:15:02;17.77;;;14.80;;
11034;SDS011;5571;48.110;-1.706;2023-03-01T04:17:49;17.77;;;14.73;;
11034;SDS011;5571;48.110;-1.706;2023-03-01T04:20:18;20.20;;;14.97;;
11034;SDS011;5571;48.110;-1.706;2023-03-01T04:25:36;18.27;;;14.87;;
11034;SDS011;5571;48.110;-1.706;2023-03-01T04:28:07;17.73;;;15.13;;
11034;SDS011;5571;48.110;-1.706;2023-03-01T04:30:34;21.73;;;14.43;;
11034;SDS011;5571;48.110;-1.706;2023-03-01T04:33:09;17.10;;;14.10;;
11034;SDS011;5571;48.110;-1.706;2023-03-01T04:35:36;17.27;;;15.27;;
11034;SDS011;5571;48.110;-1.706;2023-03-01T04:38:03;17.27;;;13.43;;
11034;SDS011;5571;48.110;-1.706;2023-03-01T04:40:29;19.13;;;14.33;;
11034;SDS011;5571;48.110;-1.706;2023-03-01T04:42:55;17.10;;;13.67;;
11034;SDS011;5571;48.110;-1.706;2023-03-01T04:45:20;16.17;;;14.07;;
11034;SDS011;5571;48.110;-1.706;2023-03-01T04:47:46;16.27;;;14.43;;
11034;SDS011;5571;48.110;-1.706;2023-03-01T04:50:13;17.53;;;14.97;;
11034;SDS011;5571;48.110;-1.706;2023-03-01T04:52:41;16.67;;;14.00;;
11034;SDS011;5571;48.110;-1.706;2023-03-01T04:55:07;17.50;;;14.87;;
11034;SDS011;5571;48.110;-1.706;2023-03-01T04:57:33;17.70;;;14.57;;
11034;SDS011;5571;48.110;-1.706;2023-03-01T04:59:59;18.07;;;15.20;;
11034;SDS011;5571;48.110;-1.706;2023-03-01T05:02:24;19.00;;;15.00;;
11034;SDS011;5571;48.110;-1.706;2023-03-01T05:04:50;18.60;;;14.77;;
11034;SDS011;5571;48.110;-1.706;2023-03-01T05:07:16;17.37;;;14.33;;
11034;SDS011;5571;48.110;-1.706;2023-03-01T05:09:47;17.33;;;14.90;;
11034;SDS011;5571;48.110;-1.706;2023-03-01T05:12:14;17.40;;;14.47;;
11034;SDS011;5571;48.110;-1.706;2023-03-01T05:14:40;17.43;;;14.27;;
11034;SDS011;5571;48.110;-1.706;2023-03-01T05:17:06;17.87;;;14.80;;
11034;SDS011;5571;48.110;-1.706;2023-03-01T05:19:32;17.60;;;15.00;;
11034;SDS011;5571;48.110;-1.706;2023-03-01T05:21:58;16.60;;;14.80;;
11034;SDS011;5571;48.110;-1.706;2023-03-01T05:24:29;18.10;;;14.70;;
11034;SDS011;5571;48.110;-1.706;2023-03-01T05:26:57;17.17;;;13.50;;
11034;SDS011;5571;48.110;-1.706;2023-03-01T05:29:23;17.87;;;14.93;;
11034;SDS011;5571;48.110;-1.706;2023-03-01T05:31:53;18.23;;;14.57;;
11034;SDS011;5571;48.110;-1.706;2023-03-01T05:34:38;18.27;;;14.77;;
11034;SDS011;5571;48.110;-1.706;2023-03-01T05:37:04;16.17;;;14.03;;
11034;SDS011;5571;48.110;-1.706;2023-03-01T05:39:30;15.80;;;14.03;;
11034;SDS011;5571;48.110;-1.706;2023-03-01T05:41:57;18.73;;;14.03;;
11034;SDS011;5571;48.110;-1.706;2023-03-01T05:44:24;17.90;;;13.70;;
11034;SDS011;5571;48.110;-1.706;2023-03-01T05:46:51;16.13;;;14.07;;
11034;SDS011;5571;48.110;-1.706;2023-03-01T05:49:17;16.57;;;14.00;;
11034;SDS011;5571;48.110;-1.706;2023-03-01T05:51:45;15.37;;;13.50;;
11034;SDS011;5571;48.110;-1.706;2023-03-01T05:54:13;16.07;;;14.07;;
11034;SDS011;5571;48.110;-1.706;2023-03-01T05:56:39;17.43;;;14.10;;
11034;SDS011;5571;48.110;-1.706;2023-03-01T05:59:05;21.37;;;13.77;;
11034;SDS011;5571;48.110;-1.706;2023-03-01T06:01:34;16.00;;;13.97;;
11034;SDS011;5571;48.110;-1.706;2023-03-01T06:04:00;17.03;;;13.40;;
11034;SDS011;5571;48.110;-1.706;2023-03-01T06:06:26;16.63;;;13.80;;
11034;SDS011;5571;48.110;-1.706;2023-03-01T06:08:52;15.20;;;13.00;;
11034;SDS011;5571;48.110;-1.706;2023-03-01T06:11:19;18.87;;;13.70;;
11034;SDS011;5571;48.110;-1.706;2023-03-01T06:13:45;16.30;;;14.17;;
11034;SDS011;5571;48.110;-1.706;2023-03-01T06:16:11;17.93;;;13.70;;
11034;SDS011;5571;48.110;-1.706;2023-03-01T06:18:37;17.90;;;13.73;;
11034;SDS011;5571;48.110;-1.706;2023-03-01T06:21:04;18.43;;;13.90;;
11034;SDS011;5571;48.110;-1.706;2023-03-01T06:23:31;17.43;;;13.53;;
11034;SDS011;5571;48.110;-1.706;2023-03-01T06:25:56;15.43;;;13.63;;
11034;SDS011;5571;48.110;-1.706;2023-03-01T06:28:22;16.20;;;12.73;;
11034;SDS011;5571;48.110;-1.706;2023-03-01T06:30:49;15.60;;;12.73;;
11034;SDS011;5571;48.110;-1.706;2023-03-01T06:33:15;17.60;;;13.80;;
11034;SDS011;5571;48.110;-1.706;2023-03-01T06:35:41;15.33;;;13.23;;
11034;SDS011;5571;48.110;-1.706;2023-03-01T06:38:06;17.00;;;12.33;;
11034;SDS011;5571;48.110;-1.706;2023-03-01T06:40:32;15.10;;;12.57;;
11034;SDS011;5571;48.110;-1.706;2023-03-01T06:43:00;15.93;;;12.90;;
11034;SDS011;5571;48.110;-1.706;2023-03-01T06:45:26;14.17;;;12.37;;
11034;SDS011;5571;48.110;-1.706;2023-03-01T06:47:51;16.07;;;13.20;;
11034;SDS011;5571;48.110;-1.706;2023-03-01T06:50:17;15.43;;;12.70;;
11034;SDS011;5571;48.110;-1.706;2023-03-01T06:52:43;14.97;;;12.77;;
11034;SDS011;5571;48.110;-1.706;2023-03-01T06:55:10;16.73;;;13.67;;
11034;SDS011;5571;48.110;-1.706;2023-03-01T06:57:36;14.43;;;12.10;;
11034;SDS011;5571;48.110;-1.706;2023-03-01T07:00:05;18.30;;;12.77;;
11034;SDS011;5571;48.110;-1.706;2023-03-01T07:02:32;14.50;;;12.70;;
11034;SDS011;5571;48.110;-1.706;2023-03-01T07:04:57;13.43;;;12.03;;
11034;SDS011;5571;48.110;-1.706;2023-03-01T07:07:23;15.57;;;12.07;;
11034;SDS011;5571;48.110;-1.706;2023-03-01T07:09:49;15.47;;;12.47;;
11034;SDS011;5571;48.110;-1.706;2023-03-01T07:12:14;14.00;;;12.50;;
11034;SDS011;5571;48.110;-1.706;2023-03-01T07:14:41;13.93;;;12.13;;
11034;SDS011;5571;48.110;-1.706;2023-03-01T07:17:08;15.07;;;12.70;;
11034;SDS011;5571;48.110;-1.706;2023-03-01T07:19:34;14.67;;;12.10;;
11034;SDS011;5571;48.110;-1.706;2023-03-01T07:21:59;14.47;;;12.20;;
11034;SDS011;5571;48.110;-1.706;2023-03-01T07:24:25;14.73;;;12.10;;
11034;SDS011;5571;48.110;-1.706;2023-03-01T07:26:51;13.80;;;11.83;;
11034;SDS011;5571;48.110;-1.706;2023-03-01T07:29:17;16.80;;;12.03;;
11034;SDS011;5571;48.110;-1.706;2023-03-01T07:31:43;15.40;;;12.73;;
11034;SDS011;5571;48.110;-1.706;2023-03-01T07:34:08;14.60;;;12.13;;
11034;SDS011;5571;48.110;-1.706;2023-03-01T07:36:35;17.73;;;12.20;;
11034;SDS011;5571;48.110;-1.706;2023-03-01T07:39:01;14.20;;;12.10;;
11034;SDS011;5571;48.110;-1.706;2023-03-01T07:41:28;17.30;;;12.43;;
11034;SDS011;5571;48.110;-1.706;2023-03-01T07:43:54;17.33;;;12.60;;
11034;SDS011;5571;48.110;-1.706;2023-03-01T07:46:20;15.57;;;12.60;;
11034;SDS011;5571;48.110;-1.706;2023-03-01T07:48:45;13.50;;;11.90;;
11034;SDS011;5571;48.110;-1.706;2023-03-01T07:51:11;13.93;;;12.40;;
11034;SDS011;5571;48.110;-1.706;2023-03-01T07:53:37;14.23;;;12.60;;
11034;SDS011;5571;48.110;-1.706;2023-03-01T07:56:04;14.03;;;12.23;;
11034;SDS011;5571;48.110;-1.706;2023-03-01T07:58:31;18.43;;;11.67;;
11034;SDS011;5571;48.110;-1.706;2023-03-01T08:01:03;15.73;;;12.13;;
11034;SDS011;5571;48.110;-1.706;2023-03-01T08:03:29;15.03;;;12.00;;
11034;SDS011;5571;48.110;-1.706;2023-03-01T08:05:55;15.10;;;12.07;;
11034;SDS011;5571;48.110;-1.706;2023-03-01T08:08:21;13.77;;;11.27;;
11034;SDS011;5571;48.110;-1.706;2023-03-01T08:10:47;16.43;;;12.37;;
11034;SDS011;5571;48.110;-1.706;2023-03-01T08:13:14;13.77;;;11.87;;
11034;SDS011;5571;48.110;-1.706;2023-03-01T08:15:40;26.60;;;18.83;;
11034;SDS011;5571;48.110;-1.706;2023-03-01T08:18:05;25.77;;;17.47;;
11034;SDS011;5571;48.110;-1.706;2023-03-01T08:20:31;18.60;;;14.87;;
11034;SDS011;5571;48.110;-1.706;2023-03-01T08:22:57;18.07;;;12.80;;
11034;SDS011;5571;48.110;-1.706;2023-03-01T08:25:23;16.57;;;13.77;;
11034;SDS011;5571;48.110;-1.706;2023-03-01T08:27:48;20.13;;;15.10;;
11034;SDS011;5571;48.110;-1.706;2023-03-01T08:30:14;14.77;;;12.50;;
11034;SDS011;5571;48.110;-1.706;2023-03-01T08:32:40;15.20;;;12.67;;
11034;SDS011;5571;48.110;-1.706;2023-03-01T08:35:06;13.93;;;11.83;;
11034;SDS011;5571;48.110;-1.706;2023-03-01T08:37:32;16.47;;;12.23;;
11034;SDS011;5571;48.110;-1.706;2023-03-01T08:39:58;12.40;;;10.87;;
11034;SDS011;5571;48.110;-1.706;2023-03-01T08:42:25;15.50;;;12.00;;
11034;SDS011;5571;48.110;-1.706;2023-03-01T08:44:51;16.83;;;11.87;;
11034;SDS011;5571;48.110;-1.706;2023-03-01T08:47:16;13.93;;;11.70;;
11034;SDS011;5571;48.110;-1.706;2023-03-01T08:49:42;15.63;;;11.77;;
11034;SDS011;5571;48.110;-1.706;2023-03-01T08:52:07;17.47;;;11.73;;
11034;SDS011;5571;48.110;-1.706;2023-03-01T08:54:33;13.67;;;11.43;;
11034;SDS011;5571;48.110;-1.706;2023-03-01T08:57:01;12.33;;;11.03;;
11034;SDS011;5571;48.110;-1.706;2023-03-01T08:59:27;14.70;;;11.30;;
11034;SDS011;5571;48.110;-1.706;2023-03-01T09:01:54;14.03;;;11.13;;
11034;SDS011;5571;48.110;-1.706;2023-03-01T09:04:20;15.43;;;10.73;;
11034;SDS011;5571;48.110;-1.706;2023-03-01T09:06:45;13.20;;;11.27;;
11034;SDS011;5571;48.110;-1.706;2023-03-01T09:09:15;14.27;;;11.97;;
11034;SDS011;5571;48.110;-1.706;2023-03-01T09:11:42;12.63;;;10.80;;
11034;SDS011;5571;48.110;-1.706;2023-03-01T09:14:08;13.83;;;11.17;;
11034;SDS011;5571;48.110;-1.706;2023-03-01T09:16:34;13.67;;;11.30;;
11034;SDS011;5571;48.110;-1.706;2023-03-01T09:19:01;12.90;;;11.03;;
11034;SDS011;5571;48.110;-1.706;2023-03-01T09:21:27;14.27;;;11.20;;
11034;SDS011;5571;48.110;-1.706;2023-03-01T09:23:53;13.10;;;11.03;;
11034;SDS011;5571;48.110;-1.706;2023-03-01T09:26:21;13.33;;;10.70;;
11034;SDS011;5571;48.110;-1.706;2023-03-01T09:28:48;14.37;;;10.63;;
11034;SDS011;5571;48.110;-1.706;2023-03-01T09:31:16;17.07;;;11.73;;
11034;SDS011;5571;48.110;-1.706;2023-03-01T09:33:45;14.37;;;10.60;;
11034;SDS011;5571;48.110;-1.706;2023-03-01T09:36:13;13.83;;;11.03;;
11034;SDS011;5571;48.110;-1.706;2023-03-01T09:38:41;17.97;;;10.97;;
11034;SDS011;5571;48.110;-1.706;2023-03-01T09:43:52;12.10;;;10.67;;
11034;SDS011;5571;48.110;-1.706;2023-03-01T09:46:47;13.17;;;10.37;;
11034;SDS011;5571;48.110;-1.706;2023-03-01T09:49:23;15.20;;;11.13;;
11034;SDS011;5571;48.110;-1.706;2023-03-01T09:51:58;15.20;;;11.10;;
11034;SDS011;5571;48.110;-1.706;2023-03-01T09:54:31;12.83;;;10.97;;
11034;SDS011;5571;48.110;-1.706;2023-03-01T09:57:18;13.60;;;11.03;;
11034;SDS011;5571;48.110;-1.706;2023-03-01T10:00:00;14.07;;;11.67;;
11034;SDS011;5571;48.110;-1.706;2023-03-01T10:02:56;14.67;;;10.57;;
11034;SDS011;5571;48.110;-1.706;2023-03-01T10:08:25;13.50;;;10.73;;
11034;SDS011;5571;48.110;-1.706;2023-03-01T10:11:03;14.17;;;10.80;;
11034;SDS011;5571;48.110;-1.706;2023-03-01T10:13:46;15.47;;;11.60;;
11034;SDS011;5571;48.110;-1.706;2023-03-01T10:16:23;16.17;;;11.63;;
11034;SDS011;5571;48.110;-1.706;2023-03-01T10:19:05;16.10;;;10.80;;
11034;SDS011;5571;48.110;-1.706;2023-03-01T10:21:36;11.67;;;10.23;;
11034;SDS011;5571;48.110;-1.706;2023-03-01T10:24:10;16.97;;;12.30;;
11034;SDS011;5571;48.110;-1.706;2023-03-01T10:29:10;13.97;;;11.27;;
11034;SDS011;5571;48.110;-1.706;2023-03-01T10:34:08;14.27;;;10.93;;
11034;SDS011;5571;48.110;-1.706;2023-03-01T10:36:43;14.00;;;11.17;;
11034;SDS011;5571;48.110;-1.706;2023-03-01T10:39:13;13.33;;;11.07;;
11034;SDS011;5571;48.110;-1.706;2023-03-01T10:41:57;15.53;;;11.20;;
11034;SDS011;5571;48.110;-1.706;2023-03-01T10:44:39;14.27;;;11.87;;
11034;SDS011;5571;48.110;-1.706;2023-03-01T10:47:13;16.97;;;11.60;;
11034;SDS011;5571;48.110;-1.706;2023-03-01T10:52:32;13.83;;;12.10;;
11034;SDS011;5571;48.110;-1.706;2023-03-01T10:55:03;16.47;;;12.27;;
11034;SDS011;5571;48.110;-1.706;2023-03-01T10:57:49;14.27;;;11.80;;
11034;SDS011;5571;48.110;-1.706;2023-03-01T11:02:48;15.83;;;12.17;;
11034;SDS011;5571;48.110;-1.706;2023-03-01T11:05:17;14.27;;;12.63;;
11034;SDS011;5571;48.110;-1.706;2023-03-01T11:07:49;15.93;;;12.63;;
11034;SDS011;5571;48.110;-1.706;2023-03-01T11:10:25;18.97;;;12.43;;
11034;SDS011;5571;48.110;-1.706;2023-03-01T11:18:31;13.97;;;12.57;;
11034;SDS011;5571;48.110;-1.706;2023-03-01T11:20:58;13.70;;;12.30;;
11034;SDS011;5571;48.110;-1.706;2023-03-01T11:23:27;17.33;;;13.00;;
11034;SDS011;5571;48.110;-1.706;2023-03-01T11:25:55;15.43;;;12.97;;
11034;SDS011;5571;48.110;-1.706;2023-03-01T11:28:25;14.57;;;13.00;;
11034;SDS011;5571;48.110;-1.706;2023-03-01T11:30:57;16.67;;;13.13;;
11034;SDS011;5571;48.110;-1.706;2023-03-01T11:33:41;15.70;;;13.47;;
11034;SDS011;5571;48.110;-1.706;2023-03-01T11:41:52;19.10;;;13.50;;
11034;SDS011;5571;48.110;-1.706;2023-03-01T11:44:27;14.37;;;12.93;;
11034;SDS011;5571;48.110;-1.706;2023-03-01T11:55:13;18.13;;;13.27;;
11034;SDS011;5571;48.110;-1.706;2023-03-01T12:11:41;13.17;;;11.87;;
11034;SDS011;5571;48.110;-1.706;2023-03-01T12:22:39;14.03;;;12.53;;
11034;SDS011;5571;48.110;-1.706;2023-03-01T12:33:41;13.43;;;11.90;;
11034;SDS011;5571;48.110;-1.706;2023-03-01T12:49:41;13.67;;;9.93;;
11034;SDS011;5571;48.110;-1.706;2023-03-01T12:52:16;10.60;;;9.50;;
11034;SDS011;5571;48.110;-1.706;2023-03-01T12:54:47;14.17;;;9.57;;
11034;SDS011;5571;48.110;-1.706;2023-03-01T12:57:16;10.60;;;9.60;;
11034;SDS011;5571;48.110;-1.706;2023-03-01T12:59:51;10.43;;;8.70;;
11034;SDS011;5571;48.110;-1.706;2023-03-01T13:02:52;9.53;;;8.57;;
11034;SDS011;5571;48.110;-1.706;2023-03-01T13:08:36;8.00;;;7.23;;
11034;SDS011;5571;48.110;-1.706;2023-03-01T13:11:18;9.10;;;7.43;;
11034;SDS011;5571;48.110;-1.706;2023-03-01T13:13:46;7.53;;;6.83;;
11034;SDS011;5571;48.110;-1.706;2023-03-01T13:19:36;7.67;;;6.60;;
11034;SDS011;5571;48.110;-1.706;2023-03-01T13:21:45;7.50;;;6.30;;
11034;SDS011;5571;48.110;-1.706;2023-03-01T13:24:29;7.87;;;6.60;;
11034;SDS011;5571;48.110;-1.706;2023-03-01T13:29:51;6.90;;;6.23;;
11034;SDS011;5571;48.110;-1.706;2023-03-01T13:32:22;6.90;;;6.27;;
11034;SDS011;5571;48.110;-1.706;2023-03-01T13:34:53;7.23;;;6.30;;
11034;SDS011;5571;48.110;-1.706;2023-03-01T13:37:25;6.37;;;5.67;;
11034;SDS011;5571;48.110;-1.706;2023-03-01T13:40:04;6.63;;;6.00;;
11034;SDS011;5571;48.110;-1.706;2023-03-01T13:42:47;5.87;;;5.27;;
11034;SDS011;5571;48.110;-1.706;2023-03-01T13:45:21;6.27;;;5.67;;
11034;SDS011;5571;48.110;-1.706;2023-03-01T13:48:02;5.80;;;5.30;;
11034;SDS011;5571;48.110;-1.706;2023-03-01T13:51:03;10.73;;;5.80;;
11034;SDS011;5571;48.110;-1.706;2023-03-01T13:53:33;7.80;;;5.97;;
11034;SDS011;5571;48.110;-1.706;2023-03-01T13:56:02;6.50;;;5.77;;
11034;SDS011;5571;48.110;-1.706;2023-03-01T13:58:33;6.97;;;5.63;;
11034;SDS011;5571;48.110;-1.706;2023-03-01T14:01:18;6.53;;;5.80;;
11034;SDS011;5571;48.110;-1.706;2023-03-01T14:03:55;7.53;;;5.77;;
11034;SDS011;5571;48.110;-1.706;2023-03-01T14:06:27;8.37;;;6.70;;
11034;SDS011;5571;48.110;-1.706;2023-03-01T14:09:03;7.70;;;6.50;;
11034;SDS011;5571;48.110;-1.706;2023-03-01T14:19:35;4.60;;;4.27;;
11034;SDS011;5571;48.110;-1.706;2023-03-01T14:22:20;5.47;;;4.97;;
11034;SDS011;5571;48.110;-1.706;2023-03-01T14:24:55;5.60;;;5.10;;
11034;SDS011;5571;48.110;-1.706;2023-03-01T14:27:25;6.73;;;5.60;;
11034;SDS011;5571;48.110;-1.706;2023-03-01T14:29:56;6.53;;;5.53;;
11034;SDS011;5571;48.110;-1.706;2023-03-01T14:32:27;5.90;;;5.13;;
11034;SDS011;5571;48.110;-1.706;2023-03-01T14:34:56;8.43;;;5.50;;
11034;SDS011;5571;48.110;-1.706;2023-03-01T14:37:33;6.23;;;5.63;;
11034;SDS011;5571;48.110;-1.706;2023-03-01T14:40:00;5.93;;;5.43;;
11034;SDS011;5571;48.110;-1.706;2023-03-01T14:42:36;6.30;;;5.70;;
11034;SDS011;5571;48.110;-1.706;2023-03-01T14:45:02;6.90;;;6.30;;
11034;SDS011;5571;48.110;-1.706;2023-03-01T14:47:34;6.67;;;5.97;;
11034;SDS011;5571;48.110;-1.706;2023-03-01T14:50:40;9.40;;;6.83;;
11034;SDS011;5571;48.110;-1.706;2023-03-01T14:53:01;9.60;;;6.97;;
11034;SDS011;5571;48.110;-1.706;2023-03-01T14:55:29;7.50;;;6.80;;
11034;SDS011;5571;48.110;-1.706;2023-03-01T14:57:59;8.93;;;7.60;;
11034;SDS011;5571;48.110;-1.706;2023-03-01T15:00:28;8.27;;;7.47;;
11034;SDS011;5571;48.110;-1.706;2023-03-01T15:02:56;8.10;;;7.13;;
11034;SDS011;5571;48.110;-1.706;2023-03-01T15:05:30;10.57;;;7.77;;
11034;SDS011;5571;48.110;-1.706;2023-03-01T15:07:58;12.23;;;7.57;;
11034;SDS011;5571;48.110;-1.706;2023-03-01T15:10:27;8.77;;;7.87;;
11034;SDS011;5571;48.110;-1.706;2023-03-01T15:12:55;8.20;;;7.40;;
11034;SDS011;5571;48.110;-1.706;2023-03-01T15:15:22;8.97;;;7.80;;
11034;SDS011;5571;48.110;-1.706;2023-03-01T15:17:55;7.97;;;7.23;;
11034;SDS011;5571;48.110;-1.706;2023-03-01T15:20:23;8.80;;;7.90;;
11034;SDS011;5571;48.110;-1.706;2023-03-01T15:22:52;9.47;;;7.83;;
11034;SDS011;5571;48.110;-1.706;2023-03-01T15:25:19;9.37;;;8.00;;
11034;SDS011;5571;48.110;-1.706;2023-03-01T15:27:54;8.70;;;7.67;;
11034;SDS011;5571;48.110;-1.706;2023-03-01T15:30:29;8.97;;;7.90;;
11034;SDS011;5571;48.110;-1.706;2023-03-01T15:33:19;11.27;;;8.57;;
11034;SDS011;5571;48.110;-1.706;2023-03-01T15:35:58;11.33;;;9.03;;
11034;SDS011;5571;48.110;-1.706;2023-03-01T15:44:16;10.10;;;9.10;;
11034;SDS011;5571;48.110;-1.706;2023-03-01T15:46:49;10.70;;;9.60;;
11034;SDS011;5571;48.110;-1.706;2023-03-01T15:49:58;12.33;;;9.37;;
11034;SDS011;5571;48.110;-1.706;2023-03-01T15:52:06;10.77;;;9.67;;
11034;SDS011;5571;48.110;-1.706;2023-03-01T15:54:38;11.30;;;10.20;;
11034;SDS011;5571;48.110;-1.706;2023-03-01T15:57:08;11.30;;;10.10;;
11034;SDS011;5571;48.110;-1.706;2023-03-01T15:59:38;11.17;;;10.03;;
11034;SDS011;5571;48.110;-1.706;2023-03-01T16:02:08;12.40;;;11.17;;
11034;SDS011;5571;48.110;-1.706;2023-03-01T16:04:39;13.10;;;10.57;;
11034;SDS011;5571;48.110;-1.706;2023-03-01T16:07:05;12.87;;;11.53;;
11034;SDS011;5571;48.110;-1.706;2023-03-01T16:09:31;12.80;;;11.43;;
11034;SDS011;5571;48.110;-1.706;2023-03-01T16:11:57;12.70;;;11.40;;
11034;SDS011;5571;48.110;-1.706;2023-03-01T16:14:23;16.60;;;11.43;;
11034;SDS011;5571;48.110;-1.706;2023-03-01T16:16:49;14.20;;;11.40;;
11034;SDS011;5571;48.110;-1.706;2023-03-01T16:19:15;12.80;;;11.17;;
11034;SDS011;5571;48.110;-1.706;2023-03-01T16:21:41;14.90;;;10.77;;
11034;SDS011;5571;48.110;-1.706;2023-03-01T16:24:07;11.33;;;10.23;;
11034;SDS011;5571;48.110;-1.706;2023-03-01T16:26:34;12.57;;;10.13;;
11034;SDS011;5571;48.110;-1.706;2023-03-01T16:29:01;11.83;;;10.63;;
11034;SDS011;5571;48.110;-1.706;2023-03-01T16:31:26;13.77;;;10.50;;
11034;SDS011;5571;48.110;-1.706;2023-03-01T16:33:54;12.10;;;10.80;;